Time;durP1;ratioP1;P1;durP2;ratioP2;P2;SDS_P1;SDS_P2;PMS_P1;PMS_P2;Temp;Humidity;BMP_temperature;BMP_pressure;BME280_temperature;BME280_humidity;BME280_pressure;Samples;Min_cycle;Max_cycle;Signal;HPM_P1;HPM_P2
2022/08/11 00:01:55;;;;;;;6.22;4.03;;;29.30;1.00;;;;;;5115566;28;20065;-46
2022/08/11 00:04:24;;;;;;;10.13;4.28;;;29.20;1.00;;;;;;5114727;28;20385;-46
2022/08/11 00:06:51;;;;;;;7.28;3.88;;;29.20;1.00;;;;;;5115627;28;20016;-48
2022/08/11 00:09:21;;;;;;;6.95;3.50;;;29.10;1.00;;;;;;5114721;28;20038;-47
2022/08/11 00:11:53;;;;;;;4.22;3.25;;;29.20;1.00;;;;;;5101400;28;20019;-48
2022/08/11 00:14:28;;;;;;;4.80;3.20;;;29.10;1.00;;;;;;5114701;28;20024;-46
2022/08/11 00:16:56;;;;;;;3.70;3.05;;;29.10;1.00;;;;;;5115196;28;20074;-47
2022/08/11 00:19:26;;;;;;;4.78;2.80;;;29.10;1.00;;;;;;5096376;28;20039;-46
2022/08/11 00:21:53;;;;;;;2.75;2.40;;;29.00;1.00;;;;;;5114920;28;20035;-46
2022/08/11 00:24:20;;;;;;;5.40;2.70;;;29.10;1.00;;;;;;5114394;28;20397;-47
2022/08/11 00:26:51;;;;;;;3.22;2.95;;;29.10;1.00;;;;;;5114551;28;20039;-48
2022/08/11 00:29:17;;;;;;;4.60;2.60;;;29.10;1.00;;;;;;5113362;28;20024;-47
2022/08/11 00:31:51;;;;;;;3.05;2.33;;;29.00;1.00;;;;;;5114924;28;20461;-46
2022/08/11 00:34:21;;;;;;;2.95;2.30;;;29.00;1.00;;;;;;5113866;28;20035;-46
2022/08/11 00:37:00;;;;;;;3.47;2.10;;;28.90;1.00;;;;;;5114749;28;20016;-46
2022/08/11 00:39:27;;;;;;;4.15;1.92;;;28.80;1.00;;;;;;5113734;28;20541;-49
2022/08/11 00:42:38;;;;;;;3.95;2.17;;;28.80;1.00;;;;;;5114527;28;20030;-46
2022/08/11 00:45:24;;;;;;;3.03;2.17;;;28.70;1.00;;;;;;5088664;28;20043;-46
2022/08/11 00:48:05;;;;;;;2.22;2.00;;;28.70;1.00;;;;;;5093567;28;20023;-48
2022/08/11 00:50:56;;;;;;;3.95;2.40;;;28.50;1.00;;;;;;5094078;28;20023;-50
2022/08/11 00:53:53;;;;;;;2.92;2.00;;;28.50;1.00;;;;;;5092334;28;20111;-46
2022/08/11 00:56:19;;;;;;;2.25;2.05;;;28.60;1.00;;;;;;5080856;28;20051;-47
2022/08/11 00:59:05;;;;;;;6.00;2.20;;;28.60;1.00;;;;;;5092402;28;20477;-48
2022/08/11 01:01:37;;;;;;;3.63;2.33;;;28.70;1.00;;;;;;5094260;28;20028;-49
2022/08/11 01:04:39;;;;;;;2.75;2.55;;;28.50;1.00;;;;;;5093055;28;20040;-48
2022/08/11 01:07:38;;;;;;;4.38;2.00;;;28.60;1.00;;;;;;5093770;28;20031;-49
2022/08/11 01:10:08;;;;;;;2.45;2.10;;;28.50;1.00;;;;;;5058572;28;20550;-49
2022/08/11 01:13:07;;;;;;;2.13;1.90;;;28.50;1.00;;;;;;5075487;28;20486;-48
2022/08/11 01:16:03;;;;;;;2.88;1.80;;;28.40;1.00;;;;;;5073458;28;20028;-46
2022/08/11 01:18:53;;;;;;;3.22;2.13;;;28.60;1.00;;;;;;5082670;28;20105;-46
2022/08/11 01:21:32;;;;;;;2.97;2.38;;;28.50;1.00;;;;;;5093712;28;20130;-46
2022/08/11 01:24:13;;;;;;;3.40;2.40;;;28.50;1.00;;;;;;5092723;28;20439;-46
2022/08/11 01:26:57;;;;;;;2.15;2.00;;;28.50;1.00;;;;;;5083855;28;20028;-46
2022/08/11 01:29:56;;;;;;;3.90;2.42;;;28.40;1.00;;;;;;5092772;28;20478;-46
2022/08/11 01:33:03;;;;;;;3.53;1.98;;;28.30;1.00;;;;;;5082898;28;20095;-47
2022/08/11 01:36:05;;;;;;;5.93;2.30;;;28.40;1.00;;;;;;5091256;28;20115;-46
2022/08/11 01:39:01;;;;;;;2.58;2.20;;;28.40;1.00;;;;;;5092249;28;20066;-46
2022/08/11 01:44:42;;;;;;;2.65;2.35;;;28.40;1.00;;;;;;5109059;28;20078;-46
2022/08/11 01:50:21;;;;;;;2.67;2.40;;;28.30;1.00;;;;;;5108516;28;20054;-47
2022/08/11 01:52:56;;;;;;;5.07;1.90;;;28.20;1.00;;;;;;5108470;28;20027;-47
2022/08/11 01:55:32;;;;;;;3.38;2.60;;;28.30;1.00;;;;;;5111671;28;20148;-44
2022/08/11 01:58:07;;;;;;;2.38;2.17;;;28.00;1.00;;;;;;5111839;28;20477;-44
2022/08/11 02:00:47;;;;;;;5.20;2.45;;;27.90;1.00;;;;;;5112520;28;20053;-45
2022/08/11 02:03:22;;;;;;;3.55;2.33;;;27.90;1.00;;;;;;5111806;28;20043;-46
2022/08/11 02:06:53;;;;;;;4.68;2.53;;;27.90;1.00;;;;;;5112238;28;20023;-47
2022/08/11 02:08:59;;;;;;;2.50;2.30;;;27.90;1.00;;;;;;5111285;28;20101;-49
2022/08/11 02:11:35;;;;;;;2.58;2.38;;;28.00;1.00;;;;;;5112924;28;20481;-46
2022/08/11 02:14:21;;;;;;;3.15;2.45;;;27.90;1.00;;;;;;5112136;28;20072;-46
2022/08/11 02:17:19;;;;;;;2.90;2.60;;;27.90;1.00;;;;;;5112834;28;20028;-48
2022/08/11 02:25:40;;;;;;;5.88;2.78;;;27.70;1.00;;;;;;5112432;28;20100;-47
2022/08/11 02:28:18;;;;;;;5.30;2.97;;;27.70;1.00;;;;;;5110711;28;20492;-46
2022/08/11 02:34:07;;;;;;;5.05;2.60;;;27.60;1.00;;;;;;5112450;28;20034;-51
2022/08/11 02:36:47;;;;;;;4.88;2.85;;;27.60;1.00;;;;;;5112638;28;20027;-51
2022/08/11 02:39:19;;;;;;;3.90;2.80;;;27.60;1.00;;;;;;5112080;28;20095;-51
2022/08/11 02:45:00;;;;;;;3.25;2.78;;;27.60;1.00;;;;;;5108236;28;20100;-52
2022/08/11 02:47:40;;;;;;;3.08;2.42;;;27.40;1.00;;;;;;5093387;28;20130;-47
2022/08/11 02:50:19;;;;;;;5.88;2.40;;;27.50;1.00;;;;;;5112439;28;20049;-46
2022/08/11 02:53:02;;;;;;;3.92;2.75;;;27.60;1.00;;;;;;5111073;28;20059;-47
2022/08/11 02:56:07;;;;;;;3.75;2.33;;;27.70;1.00;;;;;;5098478;28;20099;-46
2022/08/11 02:59:48;;;;;;;2.40;2.20;;;27.50;1.00;;;;;;5111454;28;20020;-50
2022/08/11 03:01:42;;;;;;;2.60;2.40;;;27.60;1.00;;;;;;5112034;28;20381;-46
2022/08/11 03:04:17;;;;;;;3.55;2.38;;;27.60;1.00;;;;;;5111386;28;20035;-49
2022/08/11 03:06:48;;;;;;;2.83;2.47;;;27.60;1.00;;;;;;5112114;28;20031;-49
2022/08/11 03:09:42;;;;;;;2.35;2.20;;;27.60;1.00;;;;;;5109633;28;20035;-51
2022/08/11 03:18:16;;;;;;;2.17;1.98;;;27.50;1.00;;;;;;5111363;28;20534;-48
2022/08/11 03:20:56;;;;;;;4.25;2.58;;;27.50;1.00;;;;;;5108127;28;20074;-47
2022/08/11 03:23:38;;;;;;;3.00;2.03;;;27.50;1.00;;;;;;5111403;28;20130;-47
2022/08/11 03:26:21;;;;;;;5.38;2.45;;;27.60;1.00;;;;;;5112191;28;20047;-49
2022/08/11 03:29:11;;;;;;;4.97;2.90;;;27.50;1.00;;;;;;5111507;28;20119;-48
2022/08/11 03:31:56;;;;;;;4.00;2.63;;;27.50;1.00;;;;;;5099085;28;20661;-49
2022/08/11 03:34:24;;;;;;;2.88;2.38;;;27.50;1.00;;;;;;5110980;28;20135;-50
2022/08/11 03:37:03;;;;;;;3.28;2.65;;;27.40;1.00;;;;;;5112176;28;20341;-46
2022/08/11 03:39:51;;;;;;;2.63;2.42;;;27.30;1.00;;;;;;5111061;28;20027;-45
2022/08/11 03:42:28;;;;;;;4.00;2.67;;;27.30;1.00;;;;;;5097259;28;20098;-46
2022/08/11 03:44:58;;;;;;;3.05;2.75;;;27.30;1.00;;;;;;5111556;28;20093;-46
2022/08/11 03:47:44;;;;;;;2.80;1.90;;;27.30;1.00;;;;;;5110849;28;20024;-50
2022/08/11 03:50:15;;;;;;;4.85;2.53;;;27.40;1.00;;;;;;5111738;28;20404;-51
2022/08/11 03:53:02;;;;;;;5.18;2.85;;;27.30;1.00;;;;;;5111268;28;20032;-52
2022/08/11 03:55:46;;;;;;;5.60;2.88;;;27.40;1.00;;;;;;5098011;28;20050;-45
2022/08/11 03:58:52;;;;;;;2.65;2.45;;;27.30;1.00;;;;;;5110100;28;20027;-46
2022/08/11 04:01:24;;;;;;;3.05;2.85;;;27.50;1.00;;;;;;5110697;28;20117;-49
2022/08/11 04:03:56;;;;;;;5.30;2.55;;;27.20;1.00;;;;;;5110778;28;20032;-48
2022/08/11 04:06:43;;;;;;;4.35;2.55;;;27.20;1.00;;;;;;5084921;28;20390;-46
2022/08/11 04:09:45;;;;;;;3.42;2.33;;;27.30;1.00;;;;;;5102197;28;20027;-46
2022/08/11 04:12:20;;;;;;;2.75;2.42;;;27.30;1.00;;;;;;5099657;28;20063;-46
2022/08/11 04:18:17;;;;;;;2.90;2.70;;;27.20;1.00;;;;;;5075834;28;20470;-46
2022/08/11 04:20:52;;;;;;;4.38;2.53;;;27.20;1.00;;;;;;5114440;28;20031;-46
2022/08/11 04:23:40;;;;;;;2.85;2.55;;;27.20;1.00;;;;;;5115238;28;20501;-46
2022/08/11 04:26:43;;;;;;;4.20;2.30;;;27.10;1.00;;;;;;5104169;28;20027;-49
2022/08/11 04:29:30;;;;;;;2.80;2.38;;;27.10;1.00;;;;;;5094712;28;20446;-48
2022/08/11 04:32:14;;;;;;;2.75;2.55;;;27.20;1.00;;;;;;5102618;28;20036;-52
2022/08/11 04:34:58;;;;;;;6.57;2.90;;;27.20;1.00;;;;;;5096102;28;20059;-45
2022/08/11 04:37:36;;;;;;;3.83;2.63;;;27.40;1.00;;;;;;5101244;28;20042;-46
2022/08/11 04:40:04;;;;;;;2.85;2.33;;;27.50;1.00;;;;;;5109163;28;20020;-46
2022/08/11 04:46:24;;;;;;;4.68;3.03;;;27.50;1.00;;;;;;5085420;28;20062;-47
2022/08/11 05:01:41;;;;;;;3.88;3.00;;;27.50;1.00;;;;;;5083155;28;20531;-46
2022/08/11 05:07:53;;;;;;;3.88;3.08;;;27.10;1.00;;;;;;5082347;28;20252;-46
2022/08/11 05:10:46;;;;;;;4.55;2.28;;;27.10;1.00;;;;;;5092699;28;20040;-46
2022/08/11 05:36:38;;;;;;;5.57;2.92;;;27.20;1.00;;;;;;5082618;28;20447;-46
2022/08/11 05:58:43;;;;;;;3.63;2.42;;;27.20;1.00;;;;;;5102292;28;20586;-45
2022/08/11 06:01:11;;;;;;;7.15;3.10;;;27.20;1.00;;;;;;5112187;28;20052;-45
2022/08/11 06:06:26;;;;;;;3.38;2.70;;;27.20;1.00;;;;;;5112662;28;20137;-46
2022/08/11 06:08:57;;;;;;;4.70;2.95;;;27.40;1.00;;;;;;5113032;28;20439;-47
2022/08/11 06:11:25;;;;;;;4.43;3.15;;;27.50;1.00;;;;;;5112008;28;20027;-46
2022/08/11 06:13:53;;;;;;;5.35;3.58;;;27.60;1.00;;;;;;5112426;28;20095;-48
2022/08/11 06:16:24;;;;;;;3.25;2.92;;;27.70;1.00;;;;;;5110568;28;20070;-46
2022/08/11 06:18:50;;;;;;;6.00;3.00;;;27.70;1.00;;;;;;5099491;28;20477;-47
2022/08/11 06:21:17;;;;;;;6.32;3.20;;;27.70;1.00;;;;;;5109968;28;20485;-48
2022/08/11 06:23:44;;;;;;;5.22;2.83;;;27.70;1.00;;;;;;5112652;28;20031;-46
2022/08/11 06:26:12;;;;;;;4.57;3.22;;;27.70;1.00;;;;;;5111563;28;20020;-45
2022/08/11 06:28:40;;;;;;;4.22;3.08;;;27.80;1.00;;;;;;5112194;28;20024;-46
2022/08/11 06:31:14;;;;;;;4.50;2.92;;;27.70;1.00;;;;;;5111514;28;20028;-48
2022/08/11 06:33:51;;;;;;;;;;;27.70;1.00;;;;;;5112823;28;20046;-46
2022/08/11 06:36:34;;;;;;;5.43;2.92;;;27.80;1.00;;;;;;5111935;28;20265;-48
2022/08/11 06:39:17;;;;;;;4.30;2.85;;;27.80;1.00;;;;;;5112574;28;20024;-47
2022/08/11 06:41:52;;;;;;;4.25;2.85;;;27.90;1.00;;;;;;5111378;28;20031;-50
2022/08/11 06:44:43;;;;;;;6.13;3.20;;;27.90;1.00;;;;;;5093360;28;20043;-47
2022/08/11 06:47:13;;;;;;;4.78;3.00;;;27.90;1.00;;;;;;5111046;28;20107;-48
2022/08/11 06:52:34;;;;;;;4.20;3.03;;;27.90;1.00;;;;;;5110879;28;20034;-47
2022/08/11 06:55:11;;;;;;;5.47;2.80;;;27.80;1.00;;;;;;5112201;28;20209;-46
2022/08/11 07:00:32;;;;;;;3.35;3.00;;;27.80;1.00;;;;;;5112126;28;20047;-46
2022/08/11 07:03:09;;;;;;;3.30;2.70;;;27.80;1.00;;;;;;5111455;28;20127;-45
2022/08/11 07:05:42;;;;;;;3.78;2.92;;;27.70;1.00;;;;;;5112072;28;20099;-46
2022/08/11 07:17:23;;;;;;;5.35;3.28;;;27.70;1.00;;;;;;5111434;28;20085;-45
2022/08/11 07:31:15;;;;;;;4.07;2.85;;;27.80;1.00;;;;;;5112067;28;20042;-47
2022/08/11 07:33:56;;;;;;;4.95;2.88;;;27.80;1.00;;;;;;5111140;28;20099;-49
2022/08/11 07:36:27;;;;;;;2.97;2.33;;;27.80;1.00;;;;;;5111349;28;20039;-46
2022/08/11 07:38:55;;;;;;;6.20;2.85;;;27.80;1.00;;;;;;5101374;28;20089;-47
2022/08/11 07:41:23;;;;;;;3.20;2.55;;;27.90;1.00;;;;;;5115583;28;20567;-45
2022/08/11 07:44:07;;;;;;;3.22;2.92;;;27.80;1.00;;;;;;5114268;28;20040;-46
2022/08/11 07:52:36;;;;;;;2.95;2.40;;;27.80;1.00;;;;;;5114287;28;20042;-47
2022/08/11 07:55:07;;;;;;;3.80;3.25;;;28.00;1.00;;;;;;5115463;28;20064;-46
2022/08/11 08:19:36;;;;;;;4.50;2.50;;;28.20;1.00;;;;;;5113593;28;20396;-45
2022/08/11 08:22:02;;;;;;;3.45;2.63;;;28.20;1.00;;;;;;5114007;28;20019;-45
2022/08/11 08:24:28;;;;;;;6.43;2.50;;;28.20;1.00;;;;;;5114428;28;20481;-45
2022/08/11 08:26:58;;;;;;;5.35;2.60;;;28.20;1.00;;;;;;5114217;28;20020;-46
2022/08/11 08:32:15;;;;;;;4.03;2.70;;;28.50;1.00;;;;;;5114456;28;20381;-47
2022/08/11 08:34:42;;;;;;;4.68;2.67;;;28.70;1.00;;;;;;5113835;28;20027;-49
2022/08/11 08:37:08;;;;;;;4.10;2.88;;;28.70;1.00;;;;;;5111628;28;20034;-46
2022/08/11 08:39:36;;;;;;;9.13;3.35;;;28.70;1.00;;;;;;5088985;28;20032;-46
2022/08/11 08:42:10;;;;;;;4.28;2.33;;;28.70;1.00;;;;;;5096164;28;20027;-47
2022/08/11 08:44:40;;;;;;;2.70;2.45;;;28.70;1.00;;;;;;5100946;28;20043;-47
2022/08/11 08:47:07;;;;;;;4.88;2.25;;;28.80;1.00;;;;;;5114440;28;20489;-46
2022/08/11 08:49:40;;;;;;;3.40;2.42;;;28.80;1.00;;;;;;5108290;28;20068;-46
2022/08/11 08:52:08;;;;;;;6.90;2.30;;;29.00;1.00;;;;;;5114558;28;20085;-48
2022/08/11 08:54:36;;;;;;;2.88;2.58;;;29.30;1.00;;;;;;5114449;28;20485;-47
2022/08/11 08:57:04;;;;;;;4.18;2.50;;;29.60;1.00;;;;;;5114143;28;20132;-46
2022/08/11 08:59:34;;;;;;;2.92;2.70;;;29.60;1.00;;;;;;5113545;28;20020;-48
2022/08/11 09:02:04;;;;;;;3.08;2.00;;;29.70;1.00;;;;;;5113594;28;20035;-46
2022/08/11 09:04:31;;;;;;;4.80;2.30;;;29.40;1.00;;;;;;5114457;28;20054;-48
2022/08/11 09:07:05;;;;;;;2.85;2.13;;;29.50;1.00;;;;;;5113547;28;20095;-46
2022/08/11 09:09:32;;;;;;;3.95;2.20;;;29.60;1.00;;;;;;5114218;28;20057;-46
2022/08/11 09:11:58;;;;;;;3.65;2.17;;;29.50;1.00;;;;;;5078521;28;20024;-46
2022/08/11 09:17:22;;;;;;;3.08;2.00;;;29.20;1.00;;;;;;5103364;28;20043;-46
2022/08/11 09:19:57;;;;;;;3.35;2.60;;;29.50;1.00;;;;;;5113510;28;20031;-49
2022/08/11 09:27:55;;;;;;;3.10;2.30;;;30.10;1.00;;;;;;5113307;28;20396;-48
2022/08/11 09:30:26;;;;;;;3.08;2.80;;;30.20;1.00;;;;;;5112815;28;20022;-47
2022/08/11 09:32:59;;;;;;;3.20;2.47;;;30.40;1.00;;;;;;5113914;28;20054;-49
2022/08/11 09:35:28;;;;;;;6.43;2.78;;;30.20;1.00;;;;;;5112963;28;20027;-46
2022/08/11 09:40:44;;;;;;;3.83;2.58;;;30.10;1.00;;;;;;5112975;28;20034;-49
2022/08/11 09:46:04;;;;;;;4.95;2.70;;;30.30;1.00;;;;;;5088582;28;20040;-46
2022/08/11 09:48:38;;;;;;;3.60;2.92;;;30.60;1.00;;;;;;5113814;28;20019;-47
2022/08/11 09:51:05;;;;;;;4.50;2.88;;;30.80;1.00;;;;;;5112598;28;20061;-47
2022/08/11 09:53:35;;;;;;;3.05;2.72;;;30.60;1.00;;;;;;5113482;28;20032;-46
2022/08/11 09:58:12;;;;;;;3.53;3.22;;;30.50;1.00;;;;;;5112181;28;20035;-48
2022/08/11 09:58:48;;;;;;;3.72;2.47;;;30.40;1.00;;;;;;5113286;28;20032;-47
2022/08/11 10:01:25;;;;;;;4.70;3.28;;;30.30;1.00;;;;;;5111517;28;20055;-47
2022/08/11 10:03:57;;;;;;;4.50;2.80;;;30.40;1.00;;;;;;5111926;28;20042;-48
2022/08/11 10:09:09;;;;;;;4.70;2.83;;;30.30;1.00;;;;;;5112204;28;20141;-49
2022/08/11 10:11:37;;;;;;;3.00;2.80;;;30.70;1.00;;;;;;5111916;28;20016;-46
2022/08/11 10:17:08;;;;;;;3.03;2.75;;;30.90;1.00;;;;;;5077460;28;20766;-51
2022/08/11 10:19:39;;;;;;;4.93;3.22;;;31.20;1.00;;;;;;5112360;28;20044;-49
2022/08/11 10:27:38;;;;;;;5.30;3.13;;;30.90;1.00;;;;;;5102370;28;20511;-49
2022/08/11 10:35:35;;;;;;;2.85;2.65;;;31.00;1.00;;;;;;5108601;28;20081;-51
2022/08/11 10:38:02;;;;;;;3.22;3.03;;;31.10;1.00;;;;;;5103814;28;20027;-50
2022/08/11 10:40:28;;;;;;;3.85;2.60;;;31.20;1.00;;;;;;5111549;28;20027;-52
2022/08/11 10:43:12;;;;;;;3.50;2.90;;;31.50;1.00;;;;;;5112167;28;20032;-51
2022/08/11 10:48:29;;;;;;;3.58;3.00;;;31.20;1.00;;;;;;5105149;28;19965;-51
2022/08/11 10:51:14;;;;;;;4.13;3.60;;;31.10;1.00;;;;;;5105444;28;20049;-52
2022/08/11 10:59:21;;;;;;;4.30;2.47;;;31.40;1.00;;;;;;5112250;28;20018;-52
2022/08/11 11:01:47;;;;;;;6.07;3.10;;;31.50;1.00;;;;;;5111045;28;20494;-47
2022/08/11 11:04:15;;;;;;;4.93;3.00;;;31.40;1.00;;;;;;5106424;28;20120;-51
2022/08/11 11:07:03;;;;;;;5.45;3.67;;;31.40;1.00;;;;;;5100702;28;20016;-49
2022/08/11 11:09:38;;;;;;;5.32;3.05;;;31.20;1.00;;;;;;5109497;28;20024;-47
2022/08/11 11:17:54;;;;;;;4.05;3.05;;;31.70;1.00;;;;;;5106140;28;20073;-48
2022/08/11 11:20:24;;;;;;;4.95;3.03;;;31.60;1.00;;;;;;5080718;28;20035;-47
2022/08/11 11:22:59;;;;;;;4.50;2.92;;;31.60;1.00;;;;;;5111727;28;20107;-47
2022/08/11 11:25:36;;;;;;;5.28;3.00;;;31.70;1.00;;;;;;5104362;28;20107;-47
2022/08/11 11:28:26;;;;;;;4.28;3.17;;;31.80;1.00;;;;;;5106557;28;20031;-48
2022/08/11 11:31:27;;;;;;;8.02;3.38;;;31.80;1.00;;;;;;5111025;28;20114;-48
2022/08/11 11:34:14;;;;;;;3.35;2.95;;;31.90;1.00;;;;;;5098810;28;20023;-47
2022/08/11 11:36:49;;;;;;;9.05;3.17;;;32.20;1.00;;;;;;5110617;28;20035;-47
2022/08/11 11:39:24;;;;;;;9.75;3.50;;;32.20;1.00;;;;;;5111202;28;20118;-47
2022/08/11 11:41:52;;;;;;;4.50;3.22;;;32.50;1.00;;;;;;5110929;28;20084;-47
2022/08/11 11:44:21;;;;;;;3.20;2.85;;;32.70;1.00;;;;;;5111512;28;20055;-48
2022/08/11 11:46:47;;;;;;;3.95;3.10;;;32.70;1.00;;;;;;5108448;28;20031;-48
2022/08/11 11:49:17;;;;;;;5.63;2.85;;;32.80;1.00;;;;;;5112125;28;20032;-48
2022/08/11 11:51:51;;;;;;;4.65;3.10;;;32.90;1.00;;;;;;5108030;28;20047;-47
2022/08/11 11:54:22;;;;;;;4.82;3.00;;;33.00;1.00;;;;;;5107716;28;20020;-52
2022/08/11 11:56:52;;;;;;;3.58;3.17;;;32.90;1.00;;;;;;5111700;28;20461;-48
2022/08/11 12:02:03;;;;;;;5.30;3.35;;;38.50;1.00;;;;;;5105868;28;20116;-46
2022/08/11 12:04:30;;;;;;;4.70;3.63;;;39.20;1.00;;;;;;5110681;28;20043;-48
2022/08/11 12:08:08;;;;;;;5.72;3.72;;;38.70;1.00;;;;;;5111455;28;20020;-50
2022/08/11 12:09:42;;;;;;;4.07;3.53;;;37.80;1.00;;;;;;5105658;28;20477;-51
2022/08/11 12:14:54;;;;;;;4.65;3.50;;;37.30;1.00;;;;;;5110542;28;20043;-58
2022/08/11 12:17:20;;;;;;;4.32;3.88;;;38.10;1.00;;;;;;5110289;28;20562;-60
2022/08/11 12:19:46;;;;;;;4.32;3.92;;;38.90;1.00;;;;;;5100882;28;20120;-63
2022/08/11 12:27:43;;;;;;;5.95;4.20;;;42.80;1.00;;;;;;5108946;28;20939;-60
2022/08/11 12:30:09;;;;;;;5.03;3.90;;;42.60;1.00;;;;;;5109350;28;20047;-61
2022/08/11 12:32:37;;;;;;;4.35;4.05;;;42.00;1.00;;;;;;5100896;28;20012;-51
2022/08/11 12:35:04;;;;;;;4.68;4.32;;;41.80;1.00;;;;;;5100698;28;20020;-55
2022/08/11 12:37:35;;;;;;;4.43;4.13;;;40.50;1.00;;;;;;5105558;28;20023;-59
2022/08/11 12:45:39;;;;;;;5.07;4.30;;;37.50;1.00;;;;;;5098088;28;20061;-57
2022/08/11 12:54:25;;;;;;;9.02;6.32;;;36.80;1.00;;;;;;5098887;28;20024;-58
2022/08/11 13:05:15;;;;;;;4.53;4.30;;;38.70;1.00;;;;;;5094997;28;20541;-61
2022/08/11 13:07:43;;;;;;;5.90;4.80;;;39.00;1.00;;;;;;5109543;28;20102;-43
2022/08/11 13:10:12;;;;;;;5.20;4.88;;;39.70;1.00;;;;;;5113855;28;20027;-59
2022/08/11 13:12:48;;;;;;;5.32;4.93;;;40.20;1.00;;;;;;5101145;28;20426;-57
2022/08/11 13:15:19;;;;;;;5.47;5.05;;;40.30;1.00;;;;;;5113838;28;20026;-58
2022/08/11 13:17:48;;;;;;;5.57;5.10;;;39.20;1.00;;;;;;5100209;28;20016;-58
2022/08/11 13:20:18;;;;;;;4.50;4.30;;;39.10;1.00;;;;;;5113514;28;20530;-56
2022/08/11 13:22:47;;;;;;;5.50;5.10;;;39.30;1.00;;;;;;5103570;28;20073;-52
2022/08/11 13:25:15;;;;;;;5.35;4.75;;;40.20;1.00;;;;;;5113674;28;20529;-60
2022/08/11 13:27:42;;;;;;;5.50;5.10;;;41.70;1.00;;;;;;5112528;28;20425;-55
2022/08/11 13:32:54;;;;;;;5.72;5.25;;;44.30;1.00;;;;;;5109850;28;20038;-61
2022/08/11 13:35:21;;;;;;;5.68;5.15;;;46.10;99.90;;;;;;5110191;28;20031;-61
2022/08/11 13:37:50;;;;;;;5.80;5.30;;;46.00;99.90;;;;;;5095414;28;20129;-57
2022/08/11 13:40:18;;;;;;;6.47;5.45;;;46.00;99.90;;;;;;5110353;28;20465;-58
2022/08/11 13:42:45;;;;;;;5.25;4.85;;;44.50;1.00;;;;;;5094967;28;20492;-61
2022/08/11 13:45:12;;;;;;;5.30;4.90;;;43.80;1.00;;;;;;5112845;28;20111;-61
2022/08/11 13:47:40;;;;;;;5.05;4.60;;;42.40;1.00;;;;;;5113525;28;20508;-45
2022/08/11 13:50:07;;;;;;;5.47;5.05;;;41.80;1.00;;;;;;5105415;28;20111;-44
2022/08/11 13:52:35;;;;;;;6.18;5.28;;;42.00;1.00;;;;;;5113587;28;20028;-46
2022/08/11 13:55:02;;;;;;;5.20;4.88;;;42.90;1.00;;;;;;5112772;28;20131;-43
2022/08/11 13:57:32;;;;;;;5.18;4.90;;;42.60;1.00;;;;;;5113423;28;20068;-45
2022/08/11 14:00:08;;;;;;;5.50;5.00;;;42.60;1.00;;;;;;5103435;28;20024;-45
2022/08/11 14:02:37;;;;;;;4.95;4.65;;;41.90;1.00;;;;;;5113339;28;20031;-45
2022/08/11 14:05:14;;;;;;;5.47;4.97;;;41.00;1.00;;;;;;5112569;28;20039;-43
2022/08/11 14:07:58;;;;;;;4.93;4.70;;;40.90;1.00;;;;;;5113333;28;20120;-45
2022/08/11 14:10:30;;;;;;;5.30;4.90;;;41.40;1.00;;;;;;5098935;28;20035;-44
2022/08/11 14:15:53;;;;;;;5.20;4.90;;;39.20;1.00;;;;;;5112777;28;20042;-47
2022/08/11 14:18:24;;;;;;;7.25;4.88;;;36.80;1.00;;;;;;5098542;28;20024;-46
2022/08/11 14:23:40;;;;;;;5.75;4.80;;;36.30;1.00;;;;;;5098996;28;20104;-44
2022/08/11 14:26:22;;;;;;;4.72;4.20;;;35.80;1.00;;;;;;5092694;28;20043;-50
2022/08/11 14:28:52;;;;;;;7.73;4.20;;;36.80;1.00;;;;;;5104498;28;20034;-59
2022/08/11 14:31:18;;;;;;;9.48;4.38;;;37.30;1.00;;;;;;5110486;28;20125;-58
2022/08/11 14:33:45;;;;;;;4.80;4.40;;;37.90;1.00;;;;;;5111468;28;20094;-55
2022/08/11 14:36:11;;;;;;;4.53;4.15;;;37.50;1.00;;;;;;5112676;28;20484;-55
2022/08/11 14:38:38;;;;;;;4.93;4.43;;;38.20;1.00;;;;;;5110950;28;20024;-54
2022/08/11 14:49:20;;;;;;;7.20;3.97;;;37.40;1.00;;;;;;5098606;28;20137;-56
2022/08/11 14:51:47;;;;;;;4.60;4.07;;;37.60;1.00;;;;;;5103368;28;20065;-57
2022/08/11 14:56:59;;;;;;;7.05;4.40;;;40.50;1.00;;;;;;5112218;28;20035;-57
2022/08/11 14:59:25;;;;;;;6.10;4.57;;;40.70;1.00;;;;;;5107950;28;20031;-56
2022/08/11 15:04:37;;;;;;;4.70;4.40;;;40.00;1.00;;;;;;5110188;28;20051;-57
2022/08/11 15:07:03;;;;;;;5.88;4.18;;;40.20;1.00;;;;;;5112204;28;20016;-57
2022/08/11 15:09:29;;;;;;;6.95;5.43;;;39.40;1.00;;;;;;5110642;28;20370;-57
2022/08/11 15:12:07;;;;;;;7.30;5.25;;;39.80;1.00;;;;;;5112061;28;20016;-57
2022/08/11 15:17:18;;;;;;;5.10;4.60;;;39.60;1.00;;;;;;5111937;28;20043;-56
2022/08/11 15:25:13;;;;;;;5.80;4.80;;;39.10;1.00;;;;;;5108262;28;20089;-56
2022/08/11 15:38:56;;;;;;;5.43;4.72;;;39.10;1.00;;;;;;5111863;28;20104;-57
2022/08/11 15:47:26;;;;;;;4.90;4.50;;;38.40;1.00;;;;;;4998102;28;20058;-57
2022/08/11 15:49:56;;;;;;;6.45;4.10;;;38.20;1.00;;;;;;5009485;28;20377;-57
2022/08/11 15:52:29;;;;;;;6.35;4.30;;;38.10;1.00;;;;;;5049124;28;20130;-57
2022/08/11 15:54:58;;;;;;;5.95;4.00;;;37.80;1.00;;;;;;5111600;28;20095;-57
2022/08/11 16:05:43;;;;;;;7.22;3.60;;;37.10;1.00;;;;;;5114880;28;20131;-57
2022/08/11 16:08:11;;;;;;;4.38;3.50;;;36.90;1.00;;;;;;5115496;28;20102;-55
2022/08/11 16:10:38;;;;;;;3.85;3.65;;;36.70;1.00;;;;;;5114413;28;20047;-57
2022/08/11 16:18:41;;;;;;;5.60;4.65;;;36.90;1.00;;;;;;5105122;28;20077;-56
2022/08/11 16:21:12;;;;;;;7.57;3.92;;;36.90;1.00;;;;;;5114508;28;20030;-56
2022/08/11 16:23:41;;;;;;;5.63;3.55;;;36.80;1.00;;;;;;5106959;28;20127;-56
2022/08/11 16:26:08;;;;;;;3.92;3.63;;;36.60;1.00;;;;;;5114440;28;20051;-53
2022/08/11 16:28:36;;;;;;;3.65;3.45;;;36.80;1.00;;;;;;5115008;28;20094;-54
2022/08/11 16:31:09;;;;;;;4.65;3.40;;;36.80;1.00;;;;;;5096167;28;20023;-53
2022/08/11 16:33:40;;;;;;;5.63;3.40;;;36.50;1.00;;;;;;5114882;28;20019;-55
2022/08/11 16:38:54;;;;;;;4.68;3.25;;;36.10;1.00;;;;;;5114889;28;20406;-55
2022/08/11 16:46:58;;;;;;;4.78;4.25;;;35.80;1.00;;;;;;5114926;28;20034;-56
2022/08/11 16:49:36;;;;;;;3.30;3.10;;;35.80;1.00;;;;;;5114793;28;20028;-56
2022/08/11 16:52:04;;;;;;;4.57;3.65;;;35.60;1.00;;;;;;5113643;28;20453;-56
2022/08/11 16:54:33;;;;;;;5.18;3.50;;;35.60;1.00;;;;;;5114578;28;20020;-56
2022/08/11 16:59:13;;;;;;;3.47;3.17;;;35.60;1.00;;;;;;5113597;28;20082;-56
2022/08/11 16:59:50;;;;;;;6.95;3.50;;;35.10;1.00;;;;;;5114503;28;20024;-55
2022/08/11 17:13:07;;;;;;;4.10;3.30;;;35.20;1.00;;;;;;5113952;28;20032;-56
2022/08/11 17:14:03;;;;;;;5.28;2.75;;;34.40;1.00;;;;;;5057425;28;20119;-55
2022/08/11 17:16:36;;;;;;;6.57;3.10;;;34.20;1.00;;;;;;5100039;28;20031;-53
2022/08/11 17:19:09;;;;;;;5.28;3.08;;;34.10;1.00;;;;;;5114251;28;20016;-57
2022/08/11 17:23:45;;;;;;;3.40;3.10;;;34.10;1.00;;;;;;5113802;28;20023;-54
2022/08/11 17:24:30;;;;;;;6.18;3.22;;;33.90;1.00;;;;;;5113836;28;20070;-51
2022/08/11 17:26:56;;;;;;;6.18;2.95;;;33.80;1.00;;;;;;5113038;28;20068;-54
2022/08/11 17:29:33;;;;;;;4.50;3.20;;;33.70;1.00;;;;;;5113851;28;20350;-52
2022/08/11 17:37:33;;;;;;;3.65;3.35;;;33.30;1.00;;;;;;5106877;28;20100;-57
2022/08/11 17:40:01;;;;;;;4.50;3.33;;;33.30;1.00;;;;;;5111222;28;20023;-57
2022/08/11 17:50:48;;;;;;;5.70;3.25;;;33.10;1.00;;;;;;5112924;28;20070;-57
2022/08/11 18:01:34;;;;;;;5.50;2.85;;;32.80;1.00;;;;;;5107468;27;20473;-55
2022/08/11 18:04:04;;;;;;;4.40;3.85;;;32.80;1.00;;;;;;5113214;28;20059;-55
2022/08/11 18:06:31;;;;;;;4.00;3.42;;;32.70;1.00;;;;;;5112954;27;20105;-57
